createdAt,value
2019-01-16T00:01:35.539Z,4.27
2019-01-16T00:04:12.095Z,5.13
2019-01-16T00:06:49.075Z,4.50
2019-01-16T00:09:35.078Z,4.77
2019-01-16T00:12:11.796Z,4.80
2019-01-16T00:14:58.034Z,5.68
2019-01-16T00:17:25.606Z,6.23
2019-01-16T00:19:59.019Z,4.43
2019-01-16T00:22:44.705Z,4.83
2019-01-16T00:25:12.302Z,6.20
2019-01-16T00:27:52.408Z,5.90
2019-01-16T00:30:22.400Z,5.23
2019-01-16T00:32:49.992Z,5.30
2019-01-16T00:35:32.362Z,4.87
2019-01-16T00:37:59.964Z,5.27
2019-01-16T00:40:36.402Z,5.27
2019-01-16T00:43:06.887Z,5.47
2019-01-16T00:45:36.955Z,5.90
2019-01-16T00:48:07.296Z,5.80
2019-01-16T00:50:34.889Z,5.63
2019-01-16T00:53:11.339Z,5.00
2019-01-16T00:55:53.937Z,4.93
2019-01-16T00:58:21.511Z,5.30
2019-01-16T01:01:07.050Z,4.93
2019-01-16T01:03:35.390Z,5.60
2019-01-16T01:06:20.903Z,5.10
2019-01-16T01:08:58.266Z,4.87
2019-01-16T01:11:44.147Z,5.80
2019-01-16T01:14:26.787Z,6.72
2019-01-16T01:17:03.371Z,7.60
2019-01-16T01:19:43.903Z,5.83
2019-01-16T01:22:11.505Z,6.17
2019-01-16T01:24:51.697Z,5.20
2019-01-16T01:27:19.339Z,5.73
2019-01-16T01:29:49.483Z,4.87
2019-01-16T01:32:32.244Z,5.70
2019-01-16T01:35:17.919Z,5.57
2019-01-16T01:37:57.315Z,5.40
2019-01-16T01:40:34.212Z,7.50
2019-01-16T01:43:04.495Z,6.17
2019-01-16T01:45:39.882Z,5.73
2019-01-16T01:48:07.868Z,6.03
2019-01-16T01:50:50.697Z,5.43
2019-01-16T01:53:30.424Z,6.10
2019-01-16T01:56:09.848Z,7.40
2019-01-16T01:58:55.458Z,7.90
2019-01-16T02:01:23.032Z,6.90
2019-01-16T02:03:53.179Z,6.50
2019-01-16T02:06:24.322Z,5.77
2019-01-16T02:09:04.653Z,6.83
2019-01-16T02:11:35.245Z,6.20
2019-01-16T02:14:05.740Z,5.90
2019-01-16T02:16:52.051Z,6.60
2019-01-16T02:19:27.135Z,5.83
2019-01-16T02:22:11.202Z,6.73
2019-01-16T02:24:56.832Z,7.70
2019-01-16T02:27:24.439Z,8.60
2019-01-16T02:29:52.018Z,6.80
2019-01-16T02:32:28.614Z,8.20
2019-01-16T02:35:15.177Z,6.97
2019-01-16T02:37:48.767Z,7.03
2019-01-16T02:40:16.342Z,7.20
2019-01-16T02:42:43.913Z,7.03
2019-01-16T02:45:20.258Z,6.90
2019-01-16T02:47:53.436Z,7.33
2019-01-16T02:50:26.603Z,6.90
2019-01-16T02:52:57.791Z,6.50
2019-01-16T02:55:28.038Z,6.50
2019-01-16T02:58:11.038Z,6.73
2019-01-16T03:00:50.482Z,8.45
2019-01-16T03:03:18.077Z,7.83
2019-01-16T03:05:57.387Z,7.83
2019-01-16T03:08:30.754Z,6.50
2019-01-16T03:11:03.803Z,6.80
2019-01-16T03:13:34.022Z,6.90
2019-01-16T03:16:01.603Z,6.23
2019-01-16T03:18:29.824Z,7.60
2019-01-16T03:21:15.411Z,6.67
2019-01-16T03:24:00.903Z,6.70
2019-01-16T03:26:31.217Z,6.37
2019-01-16T03:28:58.794Z,8.60
2019-01-16T03:31:44.189Z,7.37
2019-01-16T03:34:14.510Z,6.57
2019-01-16T03:36:47.903Z,8.40
2019-01-16T03:39:27.352Z,7.30
2019-01-16T03:42:01.124Z,6.60
2019-01-16T03:44:34.621Z,6.93
2019-01-16T03:47:20.774Z,6.33
2019-01-16T03:49:58.379Z,6.10
2019-01-16T03:52:25.989Z,6.20
2019-01-16T03:55:11.800Z,6.90
2019-01-16T03:57:57.476Z,7.65
2019-01-16T04:00:27.609Z,6.80
2019-01-16T04:03:01.710Z,7.80
2019-01-16T04:05:32.129Z,6.27
2019-01-16T04:07:59.703Z,6.10
2019-01-16T04:10:45.677Z,7.87
2019-01-16T04:13:13.248Z,7.32
2019-01-16T04:15:46.843Z,5.83
2019-01-16T04:18:26.466Z,6.27
2019-01-16T04:21:08.781Z,5.30
2019-01-16T04:23:51.452Z,4.70
2019-01-16T04:26:35.109Z,5.00
2019-01-16T04:29:02.682Z,4.00
2019-01-16T04:31:36.007Z,5.17
2019-01-16T04:34:06.600Z,4.07
2019-01-16T04:36:36.987Z,5.47
2019-01-16T04:39:22.449Z,4.63
2019-01-16T04:41:50.034Z,3.90
2019-01-16T04:44:26.478Z,4.73
2019-01-16T04:47:12.161Z,4.50
2019-01-16T04:49:39.765Z,4.53
2019-01-16T04:52:22.203Z,3.60
2019-01-16T04:54:55.674Z,4.50
2019-01-16T04:57:31.876Z,3.70
2019-01-16T05:00:04.978Z,3.83
2019-01-16T05:02:32.548Z,3.80
2019-01-16T05:05:17.948Z,3.33
2019-01-16T05:07:57.348Z,3.47
2019-01-16T05:10:24.913Z,3.60
2019-01-16T05:12:52.506Z,3.93
2019-01-16T05:15:38.527Z,4.00
2019-01-16T05:18:09.708Z,3.80
2019-01-16T05:20:49.303Z,3.60
2019-01-16T05:23:16.897Z,3.30
2019-01-16T05:25:44.464Z,3.40
2019-01-16T05:28:14.742Z,3.70
2019-01-16T05:30:51.094Z,3.90
2019-01-16T05:33:18.703Z,4.30
2019-01-16T05:36:04.700Z,3.63
2019-01-16T05:38:32.305Z,3.60
2019-01-16T05:41:05.353Z,3.90
2019-01-16T05:43:44.797Z,3.97
2019-01-16T05:46:14.839Z,3.83
2019-01-16T05:48:45.082Z,3.50
2019-01-16T05:51:21.713Z,3.53
2019-01-16T05:53:51.707Z,3.70
2019-01-16T05:56:38.005Z,3.27
2019-01-16T05:59:05.573Z,3.23
2019-01-16T06:01:33.902Z,3.63
2019-01-16T06:04:13.611Z,3.73
2019-01-16T06:06:59.405Z,3.30
2019-01-16T06:09:45.000Z,3.33
2019-01-16T06:12:24.652Z,3.80
2019-01-16T06:15:10.417Z,3.53
2019-01-16T06:17:40.759Z,3.43
2019-01-16T06:20:08.353Z,3.87
2019-01-16T06:22:35.918Z,3.67
2019-01-16T06:25:03.520Z,3.37
2019-01-16T06:27:34.520Z,3.53
2019-01-16T06:30:05.277Z,3.27
2019-01-16T06:32:44.779Z,5.05
2019-01-16T06:35:12.380Z,3.70
2019-01-16T06:37:55.245Z,3.53
2019-01-16T06:40:22.820Z,4.68
2019-01-16T06:42:56.376Z,3.63
2019-01-16T06:45:23.947Z,3.67
2019-01-16T06:47:55.023Z,3.50
2019-01-16T06:50:22.588Z,3.40
2019-01-16T06:52:51.815Z,3.50
2019-01-16T06:55:37.356Z,3.40
2019-01-16T06:58:07.653Z,4.30
2019-01-16T07:00:38.681Z,4.53
2019-01-16T07:03:15.252Z,4.10
2019-01-16T07:05:42.841Z,3.47
2019-01-16T07:08:25.495Z,4.50
2019-01-16T07:10:55.554Z,4.10
2019-01-16T07:13:41.293Z,4.03
2019-01-16T07:16:14.928Z,6.00
2019-01-16T07:19:00.390Z,4.83
2019-01-16T07:21:46.157Z,6.20
2019-01-16T07:24:25.781Z,5.17
2019-01-16T07:26:58.893Z,5.07
2019-01-16T07:29:31.344Z,5.20
2019-01-16T07:31:59.683Z,4.77
2019-01-16T07:34:45.514Z,4.33
2019-01-16T07:37:13.853Z,4.80
2019-01-16T07:39:42.215Z,4.53
2019-01-16T07:42:27.783Z,4.00
2019-01-16T07:44:56.095Z,5.23
2019-01-16T07:47:23.668Z,5.75
2019-01-16T07:50:09.136Z,4.93
2019-01-16T07:52:48.828Z,4.03
2019-01-16T07:55:25.147Z,5.65
2019-01-16T07:57:58.327Z,5.03
2019-01-16T08:00:32.019Z,4.90
2019-01-16T08:03:17.964Z,4.80
2019-01-16T08:05:54.608Z,3.60
2019-01-16T08:08:40.386Z,4.03
2019-01-16T08:11:08.059Z,5.03
2019-01-16T08:13:39.148Z,4.60
2019-01-16T08:16:10.196Z,4.60
2019-01-16T08:18:38.102Z,5.07
2019-01-16T08:21:05.670Z,4.37
2019-01-16T08:23:36.097Z,3.70
2019-01-16T08:26:03.722Z,3.80
2019-01-16T08:28:46.053Z,4.97
2019-01-16T08:31:25.820Z,4.43
2019-01-16T08:34:05.209Z,4.87
2019-01-16T08:36:45.916Z,5.93
2019-01-16T08:39:16.161Z,5.40
2019-01-16T08:41:46.356Z,4.27
2019-01-16T08:44:14.125Z,4.07
2019-01-16T08:46:51.127Z,4.00
2019-01-16T08:49:24.809Z,4.07
2019-01-16T08:51:52.380Z,5.18
2019-01-16T08:54:25.979Z,4.07
2019-01-16T08:56:59.508Z,4.23
2019-01-16T08:59:45.634Z,3.83
2019-01-16T09:02:16.824Z,3.50
2019-01-16T09:04:50.329Z,3.40
2019-01-16T09:07:32.870Z,3.10
2019-01-16T09:10:18.528Z,3.53
2019-01-16T09:12:52.667Z,3.47
2019-01-16T09:15:25.753Z,3.60
2019-01-16T09:18:05.295Z,5.18
2019-01-16T09:20:41.680Z,4.75
2019-01-16T09:23:21.700Z,5.25
2019-01-16T09:26:01.373Z,3.90
2019-01-16T09:28:28.975Z,4.10
2019-01-16T09:30:56.545Z,3.63
2019-01-16T09:33:29.719Z,4.00
2019-01-16T09:35:58.269Z,3.83
2019-01-16T09:38:34.936Z,3.70
2019-01-16T09:41:11.323Z,3.50
2019-01-16T09:43:39.662Z,3.67
2019-01-16T09:46:16.056Z,3.70
2019-01-16T09:48:49.163Z,3.47
2019-01-16T09:51:34.620Z,2.80
2019-01-16T09:54:20.125Z,3.20
2019-01-16T09:56:57.035Z,3.37
2019-01-16T09:59:24.640Z,2.97
2019-01-16T10:02:10.491Z,2.73
2019-01-16T10:04:56.956Z,2.80
2019-01-16T10:07:32.514Z,3.30
2019-01-16T10:10:12.489Z,2.77
2019-01-16T10:12:48.561Z,3.20
2019-01-16T10:15:34.483Z,3.47
2019-01-16T10:18:02.055Z,2.73
2019-01-16T10:20:29.634Z,3.40
2019-01-16T10:23:01.467Z,3.53
2019-01-16T10:25:47.544Z,3.60
2019-01-16T10:28:32.993Z,3.80
2019-01-16T10:31:03.484Z,3.27
2019-01-16T10:33:43.162Z,3.50
2019-01-16T10:36:29.522Z,3.60
2019-01-16T10:38:57.123Z,3.20
2019-01-16T10:41:43.605Z,3.20
2019-01-16T10:44:13.644Z,3.07
2019-01-16T10:46:44.636Z,3.00
2019-01-16T10:49:24.047Z,3.13
2019-01-16T10:52:09.622Z,3.37
2019-01-16T10:54:42.927Z,3.53
2019-01-16T10:57:26.905Z,2.80
2019-01-16T11:00:11.130Z,2.93
2019-01-16T11:02:38.719Z,3.40
2019-01-16T11:05:18.003Z,3.40
2019-01-16T11:07:46.385Z,3.80
2019-01-16T11:10:26.767Z,3.20
2019-01-16T11:12:54.386Z,3.73
2019-01-16T11:15:21.960Z,2.97
2019-01-16T11:17:52.230Z,3.10
2019-01-16T11:20:29.969Z,3.13
2019-01-16T11:23:06.703Z,2.87
2019-01-16T11:25:34.303Z,3.60
2019-01-16T11:28:01.873Z,3.63
2019-01-16T11:30:47.297Z,3.75
2019-01-16T11:33:14.863Z,3.73
2019-01-16T11:35:42.427Z,3.90
2019-01-16T11:38:10.070Z,5.00
2019-01-16T11:40:55.845Z,4.10
2019-01-16T11:43:41.873Z,3.80
2019-01-16T11:46:15.504Z,2.80
2019-01-16T11:49:01.174Z,3.47
2019-01-16T11:51:34.529Z,6.37
2019-01-16T11:54:05.362Z,4.00
2019-01-16T11:56:42.643Z,3.60
2019-01-16T11:59:14.054Z,3.60
2019-01-16T12:02:00.073Z,3.50
2019-01-16T12:04:27.687Z,3.40
2019-01-16T12:06:55.256Z,4.30
2019-01-16T12:09:38.052Z,3.83
2019-01-16T12:12:17.548Z,3.27
2019-01-16T12:14:45.138Z,3.77
2019-01-16T12:17:16.056Z,3.40
2019-01-16T12:20:02.066Z,3.47
2019-01-16T12:22:33.046Z,3.87
2019-01-16T12:25:09.429Z,5.10
2019-01-16T12:27:55.215Z,3.70
2019-01-16T12:30:40.712Z,4.47
2019-01-16T12:33:14.006Z,3.33
2019-01-16T12:35:56.868Z,4.03
2019-01-16T12:38:25.213Z,3.27
2019-01-16T12:40:55.579Z,3.43
2019-01-16T12:43:39.274Z,3.80
2019-01-16T12:46:09.393Z,3.17
2019-01-16T12:48:45.836Z,3.80
2019-01-16T12:51:25.363Z,4.43
2019-01-16T12:53:52.972Z,3.70
2019-01-16T12:56:23.251Z,3.60
2019-01-16T12:58:53.913Z,3.70
2019-01-16T13:01:21.496Z,4.97
2019-01-16T13:03:49.068Z,4.63
2019-01-16T13:06:31.862Z,4.30
2019-01-16T13:09:08.051Z,4.00
2019-01-16T13:11:38.108Z,3.40
2019-01-16T13:14:08.740Z,4.05
2019-01-16T13:16:45.135Z,4.17
2019-01-16T13:19:30.815Z,3.97
2019-01-16T13:22:10.148Z,3.90
2019-01-16T13:24:37.759Z,3.33
2019-01-16T13:27:17.129Z,3.20
2019-01-16T13:29:47.231Z,3.67
2019-01-16T13:32:15.613Z,3.40
2019-01-16T13:34:46.764Z,3.23
2019-01-16T13:37:17.064Z,3.07
2019-01-16T13:39:44.654Z,3.57
2019-01-16T13:42:15.355Z,4.33
2019-01-16T13:45:00.913Z,3.30
2019-01-16T13:47:28.483Z,4.80
2019-01-16T13:50:05.046Z,4.33
2019-01-16T13:52:44.314Z,3.47
2019-01-16T13:55:23.891Z,3.50
2019-01-16T13:58:00.629Z,3.87
2019-01-16T14:00:33.866Z,3.50
2019-01-16T14:03:01.449Z,4.37
2019-01-16T14:05:29.014Z,3.60
2019-01-16T14:08:02.213Z,4.57
2019-01-16T14:10:38.908Z,4.97
2019-01-16T14:13:12.487Z,4.07
2019-01-16T14:15:42.477Z,4.75
2019-01-16T14:18:10.082Z,4.23
2019-01-16T14:20:37.655Z,4.20
2019-01-16T14:23:20.532Z,5.10
2019-01-16T14:25:56.964Z,5.18
2019-01-16T14:28:25.462Z,4.00
2019-01-16T14:30:58.703Z,4.40
2019-01-16T14:33:29.756Z,3.37
2019-01-16T14:35:57.325Z,3.43
2019-01-16T14:38:27.581Z,3.33
2019-01-16T14:41:01.180Z,3.97
2019-01-16T14:43:35.291Z,5.17
2019-01-16T14:46:06.369Z,3.87
2019-01-16T14:48:43.079Z,7.47
2019-01-16T14:51:10.679Z,4.07
2019-01-16T14:53:57.075Z,4.50
2019-01-16T14:56:37.219Z,4.87
2019-01-16T14:59:07.280Z,4.20
2019-01-16T15:01:52.933Z,3.97
2019-01-16T15:04:30.025Z,3.80
2019-01-16T15:07:01.131Z,3.63
2019-01-16T15:09:28.709Z,4.03
2019-01-16T15:11:56.267Z,4.73
2019-01-16T15:14:29.517Z,4.47
2019-01-16T15:17:02.607Z,5.15
2019-01-16T15:19:44.910Z,4.00
2019-01-16T15:22:17.993Z,5.05
2019-01-16T15:24:54.428Z,4.60
2019-01-16T15:27:35.466Z,4.20
2019-01-16T15:30:18.014Z,4.03
2019-01-16T15:32:45.586Z,4.33
2019-01-16T15:35:32.024Z,4.10
2019-01-16T15:38:08.435Z,4.60
2019-01-16T15:40:38.624Z,4.00
2019-01-16T15:43:17.884Z,6.03
2019-01-16T15:46:00.599Z,5.23
2019-01-16T15:48:46.105Z,4.50
2019-01-16T15:51:28.871Z,5.30
2019-01-16T15:53:59.039Z,6.10
2019-01-16T15:56:26.678Z,4.93
2019-01-16T15:59:12.158Z,5.10
2019-01-16T16:01:55.302Z,5.27
2019-01-16T16:04:41.131Z,5.43
2019-01-16T16:07:12.009Z,7.10
2019-01-16T16:09:45.246Z,4.93
2019-01-16T16:12:16.526Z,4.77
2019-01-16T16:15:02.490Z,5.10
2019-01-16T16:17:30.148Z,4.87
2019-01-16T16:20:13.795Z,4.53
2019-01-16T16:22:47.720Z,4.80
2019-01-16T16:25:18.374Z,6.07
2019-01-16T16:27:48.518Z,4.97
2019-01-16T16:30:16.116Z,4.40
2019-01-16T16:32:47.278Z,4.97
2019-01-16T16:35:29.972Z,4.30
2019-01-16T16:38:09.597Z,4.67
2019-01-16T16:40:40.181Z,5.10
2019-01-16T16:43:13.418Z,4.80
2019-01-16T16:45:40.993Z,4.63
2019-01-16T16:48:26.784Z,5.17
2019-01-16T16:51:06.526Z,6.43
2019-01-16T16:53:40.098Z,6.00
2019-01-16T16:56:16.604Z,6.40
2019-01-16T16:58:44.186Z,5.20
2019-01-16T17:01:31.008Z,9.80
2019-01-16T17:04:16.813Z,5.97
2019-01-16T17:06:53.371Z,5.67
2019-01-16T17:09:20.993Z,6.63
2019-01-16T17:11:54.194Z,8.63
2019-01-16T17:14:27.651Z,5.80
2019-01-16T17:16:57.842Z,6.57
2019-01-16T17:19:29.539Z,7.17
2019-01-16T17:22:15.188Z,13.20
2019-01-16T17:24:57.976Z,20.57
2019-01-16T17:27:34.493Z,12.33
2019-01-16T17:30:04.643Z,11.10
2019-01-16T17:32:41.054Z,6.70
2019-01-16T17:35:11.328Z,7.97
2019-01-16T17:37:44.649Z,8.00
2019-01-16T17:40:30.213Z,7.00
2019-01-16T17:43:00.278Z,7.20
2019-01-16T17:45:46.534Z,5.80
2019-01-16T17:48:17.153Z,6.70
2019-01-16T17:50:54.295Z,6.40
2019-01-16T17:53:25.204Z,7.70
2019-01-16T17:56:10.820Z,7.67
2019-01-16T17:58:45.098Z,8.27
2019-01-16T18:01:12.683Z,6.20
2019-01-16T18:03:52.005Z,7.67
2019-01-16T18:06:28.560Z,5.33
2019-01-16T18:09:06.549Z,6.20
2019-01-16T18:11:34.116Z,5.97
2019-01-16T18:14:07.452Z,6.63
2019-01-16T18:16:52.829Z,6.33
2019-01-16T18:19:20.398Z,5.93
2019-01-16T18:21:56.895Z,6.20
2019-01-16T18:24:25.244Z,6.27
2019-01-16T18:26:53.186Z,7.00
2019-01-16T18:29:29.795Z,6.25
2019-01-16T18:31:57.411Z,5.17
2019-01-16T18:34:34.051Z,6.50
2019-01-16T18:37:01.621Z,5.53
2019-01-16T18:39:29.220Z,7.37
2019-01-16T18:41:56.797Z,6.00
2019-01-16T18:44:24.752Z,5.87
2019-01-16T18:47:10.329Z,7.47
2019-01-16T18:49:47.336Z,6.00
2019-01-16T18:52:14.909Z,4.90
2019-01-16T18:54:51.272Z,6.20
2019-01-16T18:57:21.273Z,5.20
2019-01-16T19:00:03.726Z,6.28
2019-01-16T19:02:43.966Z,4.70
2019-01-16T19:05:14.800Z,4.67
2019-01-16T19:08:00.745Z,5.43
2019-01-16T19:10:43.459Z,4.57
2019-01-16T19:13:23.225Z,5.30
2019-01-16T19:15:50.848Z,4.67
2019-01-16T19:18:21.786Z,5.40
2019-01-16T19:21:05.316Z,4.80
2019-01-16T19:23:42.713Z,4.57
2019-01-16T19:26:12.873Z,5.80
2019-01-16T19:28:42.968Z,6.12
2019-01-16T19:31:10.544Z,5.17
2019-01-16T19:33:40.788Z,5.33
2019-01-16T19:36:08.357Z,5.33
2019-01-16T19:38:54.446Z,5.20
2019-01-16T19:44:14.813Z,5.07
2019-01-16T19:46:51.332Z,5.50
2019-01-16T19:49:30.768Z,5.00
2019-01-16T19:51:58.341Z,4.90
2019-01-16T19:54:25.936Z,4.90
2019-01-16T19:56:56.750Z,6.37
2019-01-16T19:59:24.393Z,6.27
2019-01-16T20:01:57.443Z,5.97
2019-01-16T20:04:36.807Z,5.47
2019-01-16T20:07:06.891Z,5.50
2019-01-16T20:09:43.862Z,5.60
2019-01-16T20:12:18.262Z,5.17
2019-01-16T20:14:48.723Z,5.50
2019-01-16T20:17:20.001Z,5.77
2019-01-16T20:19:56.794Z,5.77
2019-01-16T20:22:42.344Z,5.83
2019-01-16T20:25:28.146Z,5.57
2019-01-16T20:27:58.328Z,5.67
2019-01-16T20:30:44.568Z,5.23
2019-01-16T20:33:30.633Z,5.93
2019-01-16T20:35:58.968Z,6.20
2019-01-16T20:38:29.598Z,5.80
2019-01-16T20:40:57.176Z,6.60
2019-01-16T20:43:27.351Z,5.70
2019-01-16T20:46:13.131Z,5.83
2019-01-16T20:48:44.108Z,5.17
2019-01-16T20:51:26.350Z,5.60
2019-01-16T20:53:54.502Z,5.80
2019-01-16T20:56:22.075Z,5.70
2019-01-16T20:58:58.570Z,5.47
2019-01-16T21:01:35.710Z,7.07
2019-01-16T21:04:03.287Z,6.60
2019-01-16T21:06:30.900Z,5.97
2019-01-16T21:09:13.432Z,7.07
2019-01-16T21:11:56.002Z,6.30
2019-01-16T21:14:27.077Z,6.17
2019-01-16T21:17:03.426Z,6.20
2019-01-16T21:19:30.985Z,5.30
2019-01-16T21:22:16.757Z,5.83
2019-01-16T21:24:59.593Z,5.50
2019-01-16T21:27:42.139Z,5.87
2019-01-16T21:30:12.767Z,4.60
2019-01-16T21:32:43.042Z,5.27
2019-01-16T21:35:29.585Z,5.40
2019-01-16T21:37:57.158Z,4.50
2019-01-16T21:40:36.870Z,5.03
2019-01-16T21:43:10.337Z,5.00
2019-01-16T21:45:56.141Z,4.73
2019-01-16T21:48:26.787Z,5.65
2019-01-16T21:51:03.915Z,5.40
2019-01-16T21:53:47.049Z,4.70
2019-01-16T21:56:26.577Z,5.32
2019-01-16T21:58:57.531Z,4.40
2019-01-16T22:01:43.140Z,4.37
2019-01-16T22:04:28.934Z,4.20
2019-01-16T22:07:05.070Z,4.30
2019-01-16T22:09:41.431Z,5.32
2019-01-16T22:12:20.932Z,4.37
2019-01-16T22:14:49.271Z,4.60
2019-01-16T22:17:16.845Z,4.83
2019-01-16T22:19:47.576Z,3.97
2019-01-16T22:22:17.921Z,5.17
2019-01-16T22:24:58.082Z,4.00
2019-01-16T22:27:43.562Z,4.63
2019-01-16T22:30:17.844Z,4.97
2019-01-16T22:33:03.570Z,4.10
2019-01-16T22:35:37.619Z,5.80
2019-01-16T22:38:08.086Z,5.03
2019-01-16T22:40:38.495Z,4.90
2019-01-16T22:43:14.993Z,4.90
2019-01-16T22:45:45.417Z,4.90
2019-01-16T22:48:31.191Z,5.40
2019-01-16T22:51:01.694Z,6.32
2019-01-16T22:53:29.308Z,6.07
2019-01-16T22:56:09.425Z,5.90
2019-01-16T22:58:55.460Z,5.90
2019-01-16T23:01:23.797Z,5.97
2019-01-16T23:03:57.388Z,6.03
2019-01-16T23:06:24.980Z,6.37
2019-01-16T23:08:58.079Z,5.17
2019-01-16T23:11:31.592Z,5.70
2019-01-16T23:13:59.168Z,7.18
2019-01-16T23:16:30.791Z,6.20
2019-01-16T23:19:07.245Z,5.83
2019-01-16T23:21:37.422Z,6.95
2019-01-16T23:24:14.860Z,5.13
2019-01-16T23:26:51.539Z,5.77
2019-01-16T23:29:28.050Z,5.60
2019-01-16T23:31:58.174Z,6.17
2019-01-16T23:34:26.506Z,5.23
2019-01-16T23:36:57.340Z,5.60
2019-01-16T23:39:43.172Z,5.50
2019-01-16T23:42:23.678Z,5.73
2019-01-16T23:45:09.627Z,6.30
2019-01-16T23:47:42.772Z,5.90
2019-01-16T23:50:29.300Z,6.37
2019-01-16T23:53:02.720Z,6.03
2019-01-16T23:55:42.215Z,5.77
2019-01-16T23:58:28.249Z,5.67
